sensor_id;sensor_type;location;lat;lon;timestamp;P1;durP1;ratioP1;P2;durP2;ratioP2
53253;SDS011;39148;53.332;6.922;2022-08-19T00:00:19;2.47;;;1.25;;
53253;SDS011;39148;53.332;6.922;2022-08-19T00:02:45;2.97;;;1.30;;
53253;SDS011;39148;53.332;6.922;2022-08-19T00:05:12;2.72;;;1.30;;
53253;SDS011;39148;53.332;6.922;2022-08-19T00:07:39;4.40;;;1.38;;
53253;SDS011;39148;53.332;6.922;2022-08-19T00:10:08;2.85;;;1.38;;
53253;SDS011;39148;53.332;6.922;2022-08-19T00:12:36;2.78;;;1.38;;
53253;SDS011;39148;53.332;6.922;2022-08-19T00:15:06;4.28;;;1.73;;
53253;SDS011;39148;53.332;6.922;2022-08-19T00:17:38;3.55;;;1.20;;
53253;SDS011;39148;53.332;6.922;2022-08-19T00:20:05;2.97;;;1.23;;
53253;SDS011;39148;53.332;6.922;2022-08-19T00:22:32;3.03;;;1.20;;
53253;SDS011;39148;53.332;6.922;2022-08-19T00:24:58;3.58;;;1.48;;
53253;SDS011;39148;53.332;6.922;2022-08-19T00:27:23;3.67;;;1.15;;
53253;SDS011;39148;53.332;6.922;2022-08-19T00:29:49;2.92;;;1.40;;
53253;SDS011;39148;53.332;6.922;2022-08-19T00:32:16;3.50;;;1.15;;
53253;SDS011;39148;53.332;6.922;2022-08-19T00:34:42;3.83;;;1.48;;
53253;SDS011;39148;53.332;6.922;2022-08-19T00:37:08;3.30;;;1.60;;
53253;SDS011;39148;53.332;6.922;2022-08-19T00:39:34;3.28;;;1.23;;
53253;SDS011;39148;53.332;6.922;2022-08-19T00:42:00;4.00;;;1.50;;
53253;SDS011;39148;53.332;6.922;2022-08-19T00:44:27;4.07;;;1.40;;
53253;SDS011;39148;53.332;6.922;2022-08-19T00:46:54;3.50;;;1.30;;
53253;SDS011;39148;53.332;6.922;2022-08-19T00:52:17;2.80;;;1.10;;
53253;SDS011;39148;53.332;6.922;2022-08-19T00:54:47;2.50;;;1.20;;
53253;SDS011;39148;53.332;6.922;2022-08-19T00:57:15;3.47;;;1.40;;
53253;SDS011;39148;53.332;6.922;2022-08-19T00:59:44;2.33;;;1.33;;
53253;SDS011;39148;53.332;6.922;2022-08-19T01:02:13;3.25;;;1.33;;
53253;SDS011;39148;53.332;6.922;2022-08-19T01:04:40;2.85;;;1.40;;
53253;SDS011;39148;53.332;6.922;2022-08-19T01:07:06;3.70;;;1.38;;
53253;SDS011;39148;53.332;6.922;2022-08-19T01:09:32;3.72;;;1.55;;
53253;SDS011;39148;53.332;6.922;2022-08-19T01:11:59;3.17;;;1.40;;
53253;SDS011;39148;53.332;6.922;2022-08-19T01:14:25;2.60;;;1.20;;
53253;SDS011;39148;53.332;6.922;2022-08-19T01:16:51;3.25;;;1.38;;
53253;SDS011;39148;53.332;6.922;2022-08-19T01:21:55;2.70;;;1.40;;
53253;SDS011;39148;53.332;6.922;2022-08-19T01:24:26;2.08;;;1.13;;
53253;SDS011;39148;53.332;6.922;2022-08-19T01:26:51;2.88;;;1.30;;
53253;SDS011;39148;53.332;6.922;2022-08-19T01:29:17;2.83;;;1.30;;
53253;SDS011;39148;53.332;6.922;2022-08-19T01:31:43;3.80;;;1.70;;
53253;SDS011;39148;53.332;6.922;2022-08-19T01:34:09;2.90;;;1.40;;
53253;SDS011;39148;53.332;6.922;2022-08-19T01:39:08;2.65;;;1.65;;
53253;SDS011;39148;53.332;6.922;2022-08-19T01:41:35;4.65;;;1.60;;
53253;SDS011;39148;53.332;6.922;2022-08-19T01:44:02;3.90;;;1.10;;
53253;SDS011;39148;53.332;6.922;2022-08-19T01:46:29;2.50;;;1.20;;
53253;SDS011;39148;53.332;6.922;2022-08-19T01:48:55;4.00;;;1.40;;
53253;SDS011;39148;53.332;6.922;2022-08-19T01:51:21;2.63;;;1.02;;
53253;SDS011;39148;53.332;6.922;2022-08-19T01:53:48;2.42;;;1.27;;
53253;SDS011;39148;53.332;6.922;2022-08-19T01:56:14;3.17;;;1.48;;
53253;SDS011;39148;53.332;6.922;2022-08-19T01:58:41;4.30;;;1.48;;
53253;SDS011;39148;53.332;6.922;2022-08-19T02:01:14;3.13;;;1.50;;
53253;SDS011;39148;53.332;6.922;2022-08-19T02:03:40;3.13;;;1.48;;
53253;SDS011;39148;53.332;6.922;2022-08-19T02:06:06;3.42;;;1.40;;
53253;SDS011;39148;53.332;6.922;2022-08-19T02:08:33;2.60;;;1.60;;
53253;SDS011;39148;53.332;6.922;2022-08-19T02:11:01;1.83;;;1.10;;
53253;SDS011;39148;53.332;6.922;2022-08-19T02:13:27;4.53;;;1.70;;
53253;SDS011;39148;53.332;6.922;2022-08-19T02:15:53;3.33;;;1.45;;
53253;SDS011;39148;53.332;6.922;2022-08-19T02:18:19;2.47;;;1.30;;
53253;SDS011;39148;53.332;6.922;2022-08-19T02:20:45;2.75;;;1.50;;
53253;SDS011;39148;53.332;6.922;2022-08-19T02:23:12;3.55;;;1.58;;
53253;SDS011;39148;53.332;6.922;2022-08-19T02:25:39;4.78;;;1.45;;
53253;SDS011;39148;53.332;6.922;2022-08-19T02:28:05;4.10;;;1.73;;
53253;SDS011;39148;53.332;6.922;2022-08-19T02:30:31;3.58;;;1.50;;
53253;SDS011;39148;53.332;6.922;2022-08-19T02:32:57;3.75;;;1.90;;
53253;SDS011;39148;53.332;6.922;2022-08-19T02:35:23;3.42;;;1.70;;
53253;SDS011;39148;53.332;6.922;2022-08-19T02:37:49;3.42;;;1.60;;
53253;SDS011;39148;53.332;6.922;2022-08-19T02:40:33;3.80;;;1.60;;
53253;SDS011;39148;53.332;6.922;2022-08-19T02:43:00;2.25;;;1.30;;
53253;SDS011;39148;53.332;6.922;2022-08-19T02:45:27;2.40;;;1.33;;
53253;SDS011;39148;53.332;6.922;2022-08-19T02:50:23;2.83;;;1.52;;
53253;SDS011;39148;53.332;6.922;2022-08-19T02:52:48;2.83;;;1.33;;
53253;SDS011;39148;53.332;6.922;2022-08-19T02:55:14;2.53;;;1.30;;
53253;SDS011;39148;53.332;6.922;2022-08-19T02:57:40;3.30;;;1.48;;
53253;SDS011;39148;53.332;6.922;2022-08-19T03:00:07;3.60;;;1.50;;
53253;SDS011;39148;53.332;6.922;2022-08-19T03:02:34;3.17;;;1.55;;
53253;SDS011;39148;53.332;6.922;2022-08-19T03:05:00;3.05;;;1.27;;
53253;SDS011;39148;53.332;6.922;2022-08-19T03:07:28;3.00;;;1.30;;
53253;SDS011;39148;53.332;6.922;2022-08-19T03:09:53;3.00;;;1.30;;
53253;SDS011;39148;53.332;6.922;2022-08-19T03:12:19;3.17;;;1.42;;
53253;SDS011;39148;53.332;6.922;2022-08-19T03:14:45;2.55;;;1.17;;
53253;SDS011;39148;53.332;6.922;2022-08-19T03:17:11;2.83;;;1.30;;
53253;SDS011;39148;53.332;6.922;2022-08-19T03:19:37;3.60;;;1.25;;
53253;SDS011;39148;53.332;6.922;2022-08-19T03:22:03;3.28;;;1.23;;
53253;SDS011;39148;53.332;6.922;2022-08-19T03:24:30;2.28;;;1.27;;
53253;SDS011;39148;53.332;6.922;2022-08-19T03:26:56;3.28;;;1.27;;
53253;SDS011;39148;53.332;6.922;2022-08-19T03:29:24;2.95;;;1.15;;
53253;SDS011;39148;53.332;6.922;2022-08-19T03:31:51;3.22;;;1.42;;
53253;SDS011;39148;53.332;6.922;2022-08-19T03:34:27;2.03;;;1.27;;
53253;SDS011;39148;53.332;6.922;2022-08-19T03:36:58;2.30;;;1.20;;
53253;SDS011;39148;53.332;6.922;2022-08-19T03:39:27;3.72;;;1.45;;
53253;SDS011;39148;53.332;6.922;2022-08-19T03:41:53;3.60;;;1.42;;
53253;SDS011;39148;53.332;6.922;2022-08-19T03:44:25;3.13;;;1.55;;
53253;SDS011;39148;53.332;6.922;2022-08-19T03:46:54;2.88;;;1.70;;
53253;SDS011;39148;53.332;6.922;2022-08-19T03:51:48;3.42;;;1.70;;
53253;SDS011;39148;53.332;6.922;2022-08-19T03:54:16;2.55;;;1.40;;
53253;SDS011;39148;53.332;6.922;2022-08-19T03:56:46;2.17;;;1.30;;
53253;SDS011;39148;53.332;6.922;2022-08-19T03:59:15;2.35;;;1.35;;
53253;SDS011;39148;53.332;6.922;2022-08-19T04:01:47;3.88;;;1.55;;
53253;SDS011;39148;53.332;6.922;2022-08-19T04:04:12;3.28;;;1.58;;
53253;SDS011;39148;53.332;6.922;2022-08-19T04:06:38;2.97;;;1.30;;
53253;SDS011;39148;53.332;6.922;2022-08-19T04:09:05;3.30;;;1.67;;
53253;SDS011;39148;53.332;6.922;2022-08-19T04:11:35;3.05;;;1.63;;
53253;SDS011;39148;53.332;6.922;2022-08-19T04:14:05;3.08;;;1.75;;
53253;SDS011;39148;53.332;6.922;2022-08-19T04:16:31;3.78;;;2.10;;
53253;SDS011;39148;53.332;6.922;2022-08-19T04:18:59;3.50;;;1.73;;
53253;SDS011;39148;53.332;6.922;2022-08-19T04:21:26;3.70;;;1.80;;
53253;SDS011;39148;53.332;6.922;2022-08-19T04:23:54;2.67;;;1.50;;
53253;SDS011;39148;53.332;6.922;2022-08-19T04:26:22;3.10;;;1.73;;
53253;SDS011;39148;53.332;6.922;2022-08-19T04:28:51;2.95;;;1.58;;
53253;SDS011;39148;53.332;6.922;2022-08-19T04:31:24;4.40;;;2.00;;
53253;SDS011;39148;53.332;6.922;2022-08-19T04:33:55;3.28;;;1.85;;
53253;SDS011;39148;53.332;6.922;2022-08-19T04:36:24;4.43;;;2.65;;
53253;SDS011;39148;53.332;6.922;2022-08-19T04:38:55;4.53;;;2.10;;
53253;SDS011;39148;53.332;6.922;2022-08-19T04:41:23;3.88;;;1.77;;
53253;SDS011;39148;53.332;6.922;2022-08-19T04:44:07;4.60;;;2.53;;
53253;SDS011;39148;53.332;6.922;2022-08-19T04:46:33;4.03;;;2.17;;
53253;SDS011;39148;53.332;6.922;2022-08-19T04:48:59;4.10;;;2.22;;
53253;SDS011;39148;53.332;6.922;2022-08-19T04:51:26;4.25;;;1.95;;
53253;SDS011;39148;53.332;6.922;2022-08-19T04:53:52;3.30;;;1.85;;
53253;SDS011;39148;53.332;6.922;2022-08-19T04:56:19;4.30;;;2.22;;
53253;SDS011;39148;53.332;6.922;2022-08-19T04:58:46;5.68;;;2.30;;
53253;SDS011;39148;53.332;6.922;2022-08-19T05:01:14;4.60;;;2.10;;
53253;SDS011;39148;53.332;6.922;2022-08-19T05:03:43;5.45;;;2.30;;
53253;SDS011;39148;53.332;6.922;2022-08-19T05:06:12;4.20;;;2.20;;
53253;SDS011;39148;53.332;6.922;2022-08-19T05:13:39;4.00;;;2.33;;
53253;SDS011;39148;53.332;6.922;2022-08-19T05:16:05;4.18;;;2.38;;
53253;SDS011;39148;53.332;6.922;2022-08-19T05:18:31;4.22;;;2.22;;
53253;SDS011;39148;53.332;6.922;2022-08-19T05:21:18;4.55;;;2.40;;
53253;SDS011;39148;53.332;6.922;2022-08-19T05:24:04;4.25;;;2.10;;
53253;SDS011;39148;53.332;6.922;2022-08-19T05:26:34;4.72;;;2.50;;
53253;SDS011;39148;53.332;6.922;2022-08-19T05:29:01;4.28;;;2.40;;
53253;SDS011;39148;53.332;6.922;2022-08-19T05:31:28;3.47;;;1.95;;
53253;SDS011;39148;53.332;6.922;2022-08-19T05:33:54;3.58;;;1.95;;
53253;SDS011;39148;53.332;6.922;2022-08-19T05:36:20;3.40;;;1.80;;
53253;SDS011;39148;53.332;6.922;2022-08-19T05:38:46;4.47;;;1.73;;
53253;SDS011;39148;53.332;6.922;2022-08-19T05:41:13;3.50;;;1.92;;
53253;SDS011;39148;53.332;6.922;2022-08-19T05:43:40;3.65;;;1.90;;
53253;SDS011;39148;53.332;6.922;2022-08-19T05:46:06;3.88;;;1.70;;
53253;SDS011;39148;53.332;6.922;2022-08-19T05:48:34;3.65;;;1.70;;
53253;SDS011;39148;53.332;6.922;2022-08-19T05:51:04;2.63;;;1.60;;
53253;SDS011;39148;53.332;6.922;2022-08-19T05:53:33;2.90;;;1.70;;
53253;SDS011;39148;53.332;6.922;2022-08-19T05:56:06;4.13;;;1.70;;
53253;SDS011;39148;53.332;6.922;2022-08-19T05:58:33;4.30;;;1.80;;
53253;SDS011;39148;53.332;6.922;2022-08-19T06:01:00;3.58;;;1.90;;
53253;SDS011;39148;53.332;6.922;2022-08-19T06:03:32;3.10;;;1.70;;
53253;SDS011;39148;53.332;6.922;2022-08-19T06:05:58;2.92;;;1.58;;
53253;SDS011;39148;53.332;6.922;2022-08-19T06:08:25;5.13;;;1.95;;
53253;SDS011;39148;53.332;6.922;2022-08-19T06:10:52;3.83;;;1.80;;
53253;SDS011;39148;53.332;6.922;2022-08-19T06:13:18;3.17;;;1.40;;
53253;SDS011;39148;53.332;6.922;2022-08-19T06:15:44;2.92;;;1.45;;
53253;SDS011;39148;53.332;6.922;2022-08-19T06:18:14;4.28;;;1.75;;
53253;SDS011;39148;53.332;6.922;2022-08-19T06:20:41;3.15;;;1.50;;
53253;SDS011;39148;53.332;6.922;2022-08-19T06:23:07;3.17;;;1.42;;
53253;SDS011;39148;53.332;6.922;2022-08-19T06:25:34;3.25;;;1.50;;
53253;SDS011;39148;53.332;6.922;2022-08-19T06:28:00;3.53;;;1.35;;
53253;SDS011;39148;53.332;6.922;2022-08-19T06:30:26;3.22;;;1.30;;
53253;SDS011;39148;53.332;6.922;2022-08-19T06:32:52;2.92;;;1.33;;
53253;SDS011;39148;53.332;6.922;2022-08-19T06:35:18;3.03;;;1.40;;
53253;SDS011;39148;53.332;6.922;2022-08-19T06:37:44;3.15;;;1.40;;
53253;SDS011;39148;53.332;6.922;2022-08-19T06:40:10;2.88;;;1.30;;
53253;SDS011;39148;53.332;6.922;2022-08-19T06:42:37;3.63;;;1.50;;
53253;SDS011;39148;53.332;6.922;2022-08-19T06:45:03;3.60;;;1.90;;
53253;SDS011;39148;53.332;6.922;2022-08-19T06:47:30;4.68;;;1.52;;
53253;SDS011;39148;53.332;6.922;2022-08-19T06:49:58;3.30;;;1.60;;
53253;SDS011;39148;53.332;6.922;2022-08-19T06:52:32;2.30;;;1.20;;
53253;SDS011;39148;53.332;6.922;2022-08-19T06:54:59;4.32;;;1.60;;
53253;SDS011;39148;53.332;6.922;2022-08-19T06:57:26;2.63;;;1.50;;
53253;SDS011;39148;53.332;6.922;2022-08-19T06:59:52;2.83;;;1.30;;
53253;SDS011;39148;53.332;6.922;2022-08-19T07:02:18;3.15;;;1.52;;
53253;SDS011;39148;53.332;6.922;2022-08-19T07:04:45;5.13;;;1.73;;
53253;SDS011;39148;53.332;6.922;2022-08-19T07:07:13;3.17;;;1.70;;
53253;SDS011;39148;53.332;6.922;2022-08-19T07:09:40;2.75;;;1.38;;
53253;SDS011;39148;53.332;6.922;2022-08-19T07:12:09;5.45;;;2.20;;
53253;SDS011;39148;53.332;6.922;2022-08-19T07:14:37;2.70;;;1.80;;
53253;SDS011;39148;53.332;6.922;2022-08-19T07:17:04;3.90;;;1.83;;
53253;SDS011;39148;53.332;6.922;2022-08-19T07:19:35;4.65;;;2.28;;
53253;SDS011;39148;53.332;6.922;2022-08-19T07:22:02;4.70;;;2.08;;
53253;SDS011;39148;53.332;6.922;2022-08-19T07:24:30;6.03;;;2.30;;
53253;SDS011;39148;53.332;6.922;2022-08-19T07:26:58;4.75;;;2.25;;
53253;SDS011;39148;53.332;6.922;2022-08-19T07:29:27;4.72;;;2.40;;
53253;SDS011;39148;53.332;6.922;2022-08-19T07:31:55;4.55;;;2.13;;
53253;SDS011;39148;53.332;6.922;2022-08-19T07:34:22;4.47;;;2.38;;
53253;SDS011;39148;53.332;6.922;2022-08-19T07:36:49;4.45;;;2.03;;
53253;SDS011;39148;53.332;6.922;2022-08-19T07:39:19;4.05;;;2.25;;
53253;SDS011;39148;53.332;6.922;2022-08-19T07:41:48;5.38;;;2.70;;
53253;SDS011;39148;53.332;6.922;2022-08-19T07:44:16;4.72;;;2.35;;
53253;SDS011;39148;53.332;6.922;2022-08-19T07:46:44;5.43;;;2.70;;
53253;SDS011;39148;53.332;6.922;2022-08-19T07:49:12;4.53;;;2.47;;
53253;SDS011;39148;53.332;6.922;2022-08-19T07:51:44;3.97;;;2.50;;
53253;SDS011;39148;53.332;6.922;2022-08-19T07:54:15;3.80;;;2.03;;
53253;SDS011;39148;53.332;6.922;2022-08-19T07:56:41;4.22;;;2.10;;
53253;SDS011;39148;53.332;6.922;2022-08-19T07:59:07;3.40;;;1.95;;
53253;SDS011;39148;53.332;6.922;2022-08-19T08:01:34;3.28;;;1.98;;
53253;SDS011;39148;53.332;6.922;2022-08-19T08:04:00;4.22;;;2.22;;
53253;SDS011;39148;53.332;6.922;2022-08-19T08:06:45;4.03;;;1.90;;
53253;SDS011;39148;53.332;6.922;2022-08-19T08:09:30;4.05;;;2.28;;
53253;SDS011;39148;53.332;6.922;2022-08-19T08:12:05;4.60;;;1.98;;
53253;SDS011;39148;53.332;6.922;2022-08-19T08:14:37;4.38;;;2.22;;
53253;SDS011;39148;53.332;6.922;2022-08-19T08:17:09;4.47;;;2.38;;
53253;SDS011;39148;53.332;6.922;2022-08-19T08:19:35;3.92;;;2.30;;
53253;SDS011;39148;53.332;6.922;2022-08-19T08:22:01;3.85;;;2.30;;
53253;SDS011;39148;53.332;6.922;2022-08-19T08:24:29;4.93;;;2.38;;
53253;SDS011;39148;53.332;6.922;2022-08-19T08:26:56;4.13;;;2.30;;
53253;SDS011;39148;53.332;6.922;2022-08-19T08:29:24;4.45;;;2.35;;
53253;SDS011;39148;53.332;6.922;2022-08-19T08:31:51;5.15;;;2.75;;
53253;SDS011;39148;53.332;6.922;2022-08-19T08:34:17;5.22;;;2.47;;
53253;SDS011;39148;53.332;6.922;2022-08-19T08:36:44;4.85;;;3.00;;
53253;SDS011;39148;53.332;6.922;2022-08-19T08:39:20;4.93;;;3.03;;
53253;SDS011;39148;53.332;6.922;2022-08-19T08:41:54;4.82;;;3.08;;
53253;SDS011;39148;53.332;6.922;2022-08-19T08:44:39;4.75;;;2.72;;
53253;SDS011;39148;53.332;6.922;2022-08-19T08:47:11;5.22;;;2.95;;
53253;SDS011;39148;53.332;6.922;2022-08-19T08:49:46;5.75;;;3.35;;
53253;SDS011;39148;53.332;6.922;2022-08-19T08:52:24;5.97;;;3.60;;
53253;SDS011;39148;53.332;6.922;2022-08-19T08:54:53;4.50;;;2.60;;
53253;SDS011;39148;53.332;6.922;2022-08-19T08:59:57;6.03;;;3.40;;
53253;SDS011;39148;53.332;6.922;2022-08-19T09:02:29;4.90;;;2.72;;
53253;SDS011;39148;53.332;6.922;2022-08-19T09:04:55;5.90;;;3.33;;
53253;SDS011;39148;53.332;6.922;2022-08-19T09:10:14;6.55;;;3.20;;
53253;SDS011;39148;53.332;6.922;2022-08-19T09:15:38;5.65;;;3.63;;
53253;SDS011;39148;53.332;6.922;2022-08-19T09:18:13;5.63;;;3.22;;
53253;SDS011;39148;53.332;6.922;2022-08-19T09:20:41;5.75;;;3.13;;
53253;SDS011;39148;53.332;6.922;2022-08-19T09:23:07;5.45;;;3.20;;
53253;SDS011;39148;53.332;6.922;2022-08-19T09:25:33;4.75;;;2.75;;
53253;SDS011;39148;53.332;6.922;2022-08-19T09:27:59;5.57;;;3.10;;
53253;SDS011;39148;53.332;6.922;2022-08-19T09:30:29;5.40;;;3.08;;
53253;SDS011;39148;53.332;6.922;2022-08-19T09:32:57;5.55;;;2.90;;
53253;SDS011;39148;53.332;6.922;2022-08-19T09:35:24;5.28;;;3.08;;
53253;SDS011;39148;53.332;6.922;2022-08-19T09:37:53;4.70;;;2.55;;
53253;SDS011;39148;53.332;6.922;2022-08-19T09:40:20;4.78;;;2.70;;
53253;SDS011;39148;53.332;6.922;2022-08-19T09:42:46;5.85;;;3.15;;
53253;SDS011;39148;53.332;6.922;2022-08-19T09:45:13;4.28;;;2.60;;
53253;SDS011;39148;53.332;6.922;2022-08-19T09:47:39;5.03;;;3.03;;
53253;SDS011;39148;53.332;6.922;2022-08-19T09:50:06;5.13;;;2.90;;
53253;SDS011;39148;53.332;6.922;2022-08-19T09:52:34;5.93;;;2.78;;
53253;SDS011;39148;53.332;6.922;2022-08-19T09:55:02;4.65;;;2.58;;
53253;SDS011;39148;53.332;6.922;2022-08-19T09:57:32;5.00;;;2.88;;
53253;SDS011;39148;53.332;6.922;2022-08-19T09:59:58;5.50;;;2.42;;
53253;SDS011;39148;53.332;6.922;2022-08-19T10:02:23;5.13;;;2.60;;
53253;SDS011;39148;53.332;6.922;2022-08-19T10:04:50;4.90;;;2.90;;
53253;SDS011;39148;53.332;6.922;2022-08-19T10:07:34;5.15;;;2.80;;
53253;SDS011;39148;53.332;6.922;2022-08-19T10:10:00;4.63;;;2.63;;
53253;SDS011;39148;53.332;6.922;2022-08-19T10:12:26;3.85;;;2.22;;
53253;SDS011;39148;53.332;6.922;2022-08-19T10:14:52;4.55;;;2.58;;
53253;SDS011;39148;53.332;6.922;2022-08-19T10:17:19;5.30;;;2.63;;
53253;SDS011;39148;53.332;6.922;2022-08-19T10:19:45;5.28;;;2.47;;
53253;SDS011;39148;53.332;6.922;2022-08-19T10:22:12;3.83;;;2.10;;
53253;SDS011;39148;53.332;6.922;2022-08-19T10:24:38;3.88;;;2.20;;
53253;SDS011;39148;53.332;6.922;2022-08-19T10:27:04;3.67;;;2.00;;
53253;SDS011;39148;53.332;6.922;2022-08-19T10:29:31;4.28;;;2.13;;
53253;SDS011;39148;53.332;6.922;2022-08-19T10:32:03;4.28;;;2.22;;
53253;SDS011;39148;53.332;6.922;2022-08-19T10:34:32;3.80;;;2.17;;
53253;SDS011;39148;53.332;6.922;2022-08-19T10:37:00;4.55;;;2.20;;
53253;SDS011;39148;53.332;6.922;2022-08-19T10:39:26;3.85;;;2.03;;
53253;SDS011;39148;53.332;6.922;2022-08-19T10:41:54;4.80;;;2.35;;
53253;SDS011;39148;53.332;6.922;2022-08-19T10:44:21;4.72;;;2.63;;
53253;SDS011;39148;53.332;6.922;2022-08-19T10:46:48;5.18;;;2.70;;
53253;SDS011;39148;53.332;6.922;2022-08-19T10:49:15;4.70;;;2.10;;
53253;SDS011;39148;53.332;6.922;2022-08-19T10:51:41;4.75;;;2.10;;
53253;SDS011;39148;53.332;6.922;2022-08-19T10:54:26;4.30;;;2.20;;
53253;SDS011;39148;53.332;6.922;2022-08-19T10:57:12;5.28;;;2.13;;
53253;SDS011;39148;53.332;6.922;2022-08-19T10:59:38;5.60;;;2.80;;
53253;SDS011;39148;53.332;6.922;2022-08-19T11:02:05;4.18;;;2.30;;
53253;SDS011;39148;53.332;6.922;2022-08-19T11:04:34;4.05;;;2.25;;
53253;SDS011;39148;53.332;6.922;2022-08-19T11:07:02;3.70;;;2.08;;
53253;SDS011;39148;53.332;6.922;2022-08-19T11:09:28;3.92;;;2.05;;
53253;SDS011;39148;53.332;6.922;2022-08-19T11:11:55;3.22;;;1.70;;
53253;SDS011;39148;53.332;6.922;2022-08-19T11:14:21;3.45;;;2.00;;
53253;SDS011;39148;53.332;6.922;2022-08-19T11:16:49;3.47;;;2.00;;
53253;SDS011;39148;53.332;6.922;2022-08-19T11:19:17;3.45;;;2.10;;
53253;SDS011;39148;53.332;6.922;2022-08-19T11:21:45;3.63;;;1.90;;
53253;SDS011;39148;53.332;6.922;2022-08-19T11:24:23;3.50;;;2.10;;
53253;SDS011;39148;53.332;6.922;2022-08-19T11:26:50;3.85;;;1.90;;
53253;SDS011;39148;53.332;6.922;2022-08-19T11:29:21;3.33;;;1.95;;
53253;SDS011;39148;53.332;6.922;2022-08-19T11:31:50;3.70;;;1.90;;
53253;SDS011;39148;53.332;6.922;2022-08-19T11:34:21;4.00;;;1.70;;
53253;SDS011;39148;53.332;6.922;2022-08-19T11:36:49;3.38;;;2.03;;
53253;SDS011;39148;53.332;6.922;2022-08-19T11:39:17;3.10;;;1.85;;
53253;SDS011;39148;53.332;6.922;2022-08-19T11:41:44;4.55;;;2.05;;
53253;SDS011;39148;53.332;6.922;2022-08-19T11:44:10;4.22;;;2.17;;
53253;SDS011;39148;53.332;6.922;2022-08-19T11:46:37;4.60;;;2.15;;
53253;SDS011;39148;53.332;6.922;2022-08-19T11:49:03;4.20;;;2.20;;
53253;SDS011;39148;53.332;6.922;2022-08-19T11:51:31;3.85;;;2.38;;
53253;SDS011;39148;53.332;6.922;2022-08-19T11:53:57;3.72;;;1.98;;
53253;SDS011;39148;53.332;6.922;2022-08-19T11:56:24;3.83;;;2.20;;
53253;SDS011;39148;53.332;6.922;2022-08-19T11:58:52;4.05;;;2.30;;
53253;SDS011;39148;53.332;6.922;2022-08-19T12:01:20;3.42;;;1.90;;
53253;SDS011;39148;53.332;6.922;2022-08-19T12:03:48;3.72;;;2.03;;
53253;SDS011;39148;53.332;6.922;2022-08-19T12:06:17;4.03;;;1.80;;
53253;SDS011;39148;53.332;6.922;2022-08-19T12:08:45;6.20;;;2.10;;
53253;SDS011;39148;53.332;6.922;2022-08-19T12:11:12;3.65;;;2.00;;
53253;SDS011;39148;53.332;6.922;2022-08-19T12:13:39;3.08;;;1.92;;
53253;SDS011;39148;53.332;6.922;2022-08-19T12:16:08;3.72;;;2.05;;
53253;SDS011;39148;53.332;6.922;2022-08-19T12:18:39;3.65;;;2.03;;
53253;SDS011;39148;53.332;6.922;2022-08-19T12:21:07;3.67;;;2.28;;
53253;SDS011;39148;53.332;6.922;2022-08-19T12:23:35;3.45;;;2.15;;
53253;SDS011;39148;53.332;6.922;2022-08-19T12:26:02;3.50;;;1.95;;
53253;SDS011;39148;53.332;6.922;2022-08-19T12:28:28;3.70;;;2.20;;
53253;SDS011;39148;53.332;6.922;2022-08-19T12:30:55;4.32;;;1.90;;
53253;SDS011;39148;53.332;6.922;2022-08-19T12:33:22;3.30;;;2.10;;
53253;SDS011;39148;53.332;6.922;2022-08-19T12:35:50;4.82;;;2.30;;
53253;SDS011;39148;53.332;6.922;2022-08-19T12:38:17;4.18;;;2.00;;
53253;SDS011;39148;53.332;6.922;2022-08-19T12:40:46;3.90;;;2.50;;
53253;SDS011;39148;53.332;6.922;2022-08-19T12:43:13;5.57;;;2.20;;
53253;SDS011;39148;53.332;6.922;2022-08-19T12:45:41;4.28;;;2.50;;
53253;SDS011;39148;53.332;6.922;2022-08-19T12:48:07;3.67;;;2.22;;
53253;SDS011;39148;53.332;6.922;2022-08-19T12:50:33;3.35;;;2.03;;
53253;SDS011;39148;53.332;6.922;2022-08-19T12:52:59;3.55;;;2.13;;
53253;SDS011;39148;53.332;6.922;2022-08-19T12:55:25;5.13;;;2.30;;
53253;SDS011;39148;53.332;6.922;2022-08-19T12:57:53;3.47;;;2.10;;
53253;SDS011;39148;53.332;6.922;2022-08-19T13:00:20;3.47;;;2.20;;
53253;SDS011;39148;53.332;6.922;2022-08-19T13:02:47;3.30;;;2.00;;
53253;SDS011;39148;53.332;6.922;2022-08-19T13:10:15;4.38;;;2.08;;
53253;SDS011;39148;53.332;6.922;2022-08-19T13:12:43;4.53;;;2.35;;
53253;SDS011;39148;53.332;6.922;2022-08-19T13:15:10;3.20;;;2.00;;
53253;SDS011;39148;53.332;6.922;2022-08-19T13:17:38;4.63;;;2.08;;
53253;SDS011;39148;53.332;6.922;2022-08-19T13:20:05;3.58;;;2.03;;
53253;SDS011;39148;53.332;6.922;2022-08-19T13:22:33;4.38;;;2.30;;
53253;SDS011;39148;53.332;6.922;2022-08-19T13:25:00;3.92;;;2.40;;
53253;SDS011;39148;53.332;6.922;2022-08-19T13:27:28;3.53;;;2.28;;
53253;SDS011;39148;53.332;6.922;2022-08-19T13:29:54;3.55;;;2.22;;
53253;SDS011;39148;53.332;6.922;2022-08-19T13:32:38;3.75;;;2.20;;
53253;SDS011;39148;53.332;6.922;2022-08-19T13:35:23;4.30;;;2.17;;
53253;SDS011;39148;53.332;6.922;2022-08-19T13:37:48;3.28;;;2.10;;
53253;SDS011;39148;53.332;6.922;2022-08-19T13:40:16;3.65;;;2.17;;
53253;SDS011;39148;53.332;6.922;2022-08-19T13:42:52;4.68;;;2.20;;
53253;SDS011;39148;53.332;6.922;2022-08-19T13:45:21;4.38;;;2.45;;
53253;SDS011;39148;53.332;6.922;2022-08-19T13:47:50;3.47;;;2.17;;
53253;SDS011;39148;53.332;6.922;2022-08-19T13:50:18;3.97;;;2.40;;
53253;SDS011;39148;53.332;6.922;2022-08-19T13:52:46;3.70;;;2.22;;
53253;SDS011;39148;53.332;6.922;2022-08-19T13:55:13;4.57;;;2.53;;
53253;SDS011;39148;53.332;6.922;2022-08-19T13:57:40;5.15;;;2.40;;
53253;SDS011;39148;53.332;6.922;2022-08-19T14:00:11;4.00;;;2.40;;
53253;SDS011;39148;53.332;6.922;2022-08-19T14:02:40;4.35;;;2.10;;
53253;SDS011;39148;53.332;6.922;2022-08-19T14:05:08;4.10;;;2.20;;
53253;SDS011;39148;53.332;6.922;2022-08-19T14:07:36;4.45;;;2.40;;
53253;SDS011;39148;53.332;6.922;2022-08-19T14:10:05;4.18;;;2.50;;
53253;SDS011;39148;53.332;6.922;2022-08-19T14:12:32;4.22;;;2.20;;
53253;SDS011;39148;53.332;6.922;2022-08-19T14:14:59;5.93;;;2.20;;
53253;SDS011;39148;53.332;6.922;2022-08-19T14:17:25;4.22;;;2.30;;
53253;SDS011;39148;53.332;6.922;2022-08-19T14:19:57;4.57;;;2.63;;
53253;SDS011;39148;53.332;6.922;2022-08-19T14:22:26;4.03;;;2.22;;
53253;SDS011;39148;53.332;6.922;2022-08-19T14:24:52;4.78;;;2.58;;
53253;SDS011;39148;53.332;6.922;2022-08-19T14:27:18;4.15;;;2.88;;
53253;SDS011;39148;53.332;6.922;2022-08-19T14:29:43;4.97;;;2.70;;
53253;SDS011;39148;53.332;6.922;2022-08-19T14:32:10;4.15;;;2.75;;
53253;SDS011;39148;53.332;6.922;2022-08-19T14:34:37;4.82;;;2.60;;
53253;SDS011;39148;53.332;6.922;2022-08-19T14:37:02;6.10;;;2.80;;
53253;SDS011;39148;53.332;6.922;2022-08-19T14:39:28;4.57;;;2.90;;
53253;SDS011;39148;53.332;6.922;2022-08-19T14:41:54;4.60;;;2.97;;
53253;SDS011;39148;53.332;6.922;2022-08-19T14:44:21;4.30;;;2.92;;
53253;SDS011;39148;53.332;6.922;2022-08-19T14:46:47;4.70;;;2.70;;
53253;SDS011;39148;53.332;6.922;2022-08-19T14:49:13;4.38;;;2.88;;
53253;SDS011;39148;53.332;6.922;2022-08-19T14:51:39;5.10;;;2.53;;
53253;SDS011;39148;53.332;6.922;2022-08-19T14:54:04;3.72;;;2.67;;
53253;SDS011;39148;53.332;6.922;2022-08-19T14:56:30;3.92;;;2.53;;
53253;SDS011;39148;53.332;6.922;2022-08-19T14:58:56;4.70;;;2.63;;
53253;SDS011;39148;53.332;6.922;2022-08-19T15:01:26;3.80;;;2.38;;
53253;SDS011;39148;53.332;6.922;2022-08-19T15:03:52;4.55;;;2.60;;
53253;SDS011;39148;53.332;6.922;2022-08-19T15:06:19;4.13;;;2.72;;
53253;SDS011;39148;53.332;6.922;2022-08-19T15:08:47;4.00;;;2.50;;
53253;SDS011;39148;53.332;6.922;2022-08-19T15:11:14;5.43;;;2.80;;
53253;SDS011;39148;53.332;6.922;2022-08-19T15:13:42;5.32;;;2.30;;
53253;SDS011;39148;53.332;6.922;2022-08-19T15:16:09;4.88;;;2.72;;
53253;SDS011;39148;53.332;6.922;2022-08-19T15:18:35;4.03;;;2.67;;
53253;SDS011;39148;53.332;6.922;2022-08-19T15:21:02;4.65;;;2.60;;
53253;SDS011;39148;53.332;6.922;2022-08-19T15:23:28;4.00;;;2.47;;